Time;durP1;ratioP1;P1;durP2;ratioP2;P2;SDS_P1;SDS_P2;PMS_P1;PMS_P2;Temp;Humidity;BMP_temperature;BMP_pressure;BME280_temperature;BME280_humidity;BME280_pressure;Samples;Min_cycle;Max_cycle;Signal;HPM_P1;HPM_P2
2022/04/11 00:00:58;;;;;;;0.30;0.17;;;;;;;23.59;53.40;100662.88;5032586;28;20373;-63
2022/04/11 00:03:23;;;;;;;0.80;0.38;;;;;;;23.62;53.82;100657.78;5032662;28;20025;-64
2022/04/11 00:05:49;;;;;;;0.70;0.45;;;;;;;23.65;53.56;100654.63;5034200;28;20021;-63
2022/04/11 00:08:14;;;;;;;1.00;0.40;;;;;;;23.67;53.20;100665.38;5035545;28;20032;-63
2022/04/11 00:10:39;;;;;;;0.98;0.30;;;;;;;23.68;52.50;100667.94;5032496;28;20028;-64
2022/04/11 00:13:06;;;;;;;0.35;0.17;;;;;;;23.72;52.61;100667.53;5032590;28;20068;-64
2022/04/11 00:15:33;;;;;;;0.85;0.38;;;;;;;23.72;52.71;100670.28;5033094;28;20029;-64
2022/04/11 00:18:01;;;;;;;1.25;0.30;;;;;;;23.74;52.72;100673.66;5036381;28;20357;-64
2022/04/11 00:20:27;;;;;;;2.08;0.30;;;;;;;23.77;52.13;100675.97;5035815;28;20024;-64
2022/04/11 00:22:52;;;;;;;0.55;0.30;;;;;;;23.78;51.52;100688.63;5035921;28;20029;-63
2022/04/11 00:25:17;;;;;;;0.90;0.30;;;;;;;23.79;51.70;100685.66;5035730;28;20029;-63
2022/04/11 00:27:43;;;;;;;1.27;0.20;;;;;;;23.81;51.77;100694.53;5035833;28;20025;-63
2022/04/11 00:30:08;;;;;;;0.47;0.28;;;;;;;23.83;52.16;100695.16;5035832;28;20037;-63
2022/04/11 00:32:41;;;;;;;1.30;0.20;;;;;;;23.81;51.82;100699.19;5035442;28;20473;-64
2022/04/11 00:35:08;;;;;;;2.60;0.32;;;;;;;23.84;51.59;100698.75;5035772;28;20053;-63
2022/04/11 00:37:34;;;;;;;1.33;0.30;;;;;;;23.88;51.24;100697.31;5034111;28;20021;-63
2022/04/11 00:39:59;;;;;;;1.13;0.17;;;;;;;23.87;50.94;100698.34;5035792;28;20404;-63
2022/04/11 00:42:27;;;;;;;1.70;0.20;;;;;;;23.87;51.12;100698.34;5035857;28;20036;-64
2022/04/11 00:44:53;;;;;;;2.05;0.28;;;;;;;23.89;50.95;100702.56;5035482;28;20024;-64
2022/04/11 00:47:18;;;;;;;1.25;0.20;;;;;;;23.88;50.77;100709.13;5038690;28;20029;-64
2022/04/11 00:49:44;;;;;;;1.50;0.30;;;;;;;23.91;51.42;100711.44;5047156;28;20022;-65
2022/04/11 00:52:10;;;;;;;0.93;0.60;;;;;;;23.93;50.98;100713.97;5035186;28;20052;-65
2022/04/11 00:54:35;;;;;;;0.60;0.10;;;;;;;23.94;50.62;100712.91;5035274;28;20021;-65
2022/04/11 00:57:01;;;;;;;1.65;0.40;;;;;;;23.96;50.93;100719.03;5035431;28;20491;-65
2022/04/11 00:59:27;;;;;;;1.05;0.25;;;;;;;23.97;51.26;100716.06;5037526;28;20032;-65
2022/04/11 01:01:53;;;;;;;1.05;0.30;;;;;;;23.97;50.70;100723.47;5035374;28;20026;-65
2022/04/11 01:04:24;;;;;;;1.20;0.25;;;;;;;23.99;51.34;100735.09;5035117;28;20029;-64
2022/04/11 01:06:51;;;;;;;2.30;0.65;;;;;;;23.97;50.28;100726.22;5035143;28;20036;-65
2022/04/11 01:09:17;;;;;;;1.38;0.45;;;;;;;23.98;50.85;100727.91;5034848;28;20047;-64
2022/04/11 01:11:43;;;;;;;0.90;0.10;;;;;;;23.99;50.47;100737.81;5034946;28;20021;-65
2022/04/11 01:14:08;;;;;;;1.08;0.45;;;;;;;24.00;50.59;100736.75;5034873;28;20029;-64
2022/04/11 01:16:33;;;;;;;1.42;0.30;;;;;;;24.02;50.40;100740.19;5034748;28;20117;-64
2022/04/11 01:18:59;;;;;;;1.00;0.43;;;;;;;24.05;50.33;100742.50;5035428;28;20036;-64
2022/04/11 01:21:28;;;;;;;2.95;0.40;;;;;;;24.03;50.67;100741.88;5034659;28;20464;-64
2022/04/11 01:23:54;;;;;;;0.88;0.20;;;;;;;24.01;50.24;100757.69;5035159;28;20492;-65
2022/04/11 01:26:22;;;;;;;1.17;0.20;;;;;;;24.05;50.85;100755.38;5034700;28;20029;-64
2022/04/11 01:28:48;;;;;;;6.88;0.52;;;;;;;24.03;50.23;100757.50;5034227;28;20030;-64
2022/04/11 01:31:15;;;;;;;1.75;0.40;;;;;;;24.04;50.42;100760.03;5055386;28;20017;-65
2022/04/11 01:33:40;;;;;;;0.75;0.20;;;;;;;24.06;50.31;100759.81;5037216;28;20029;-65
2022/04/11 01:36:05;;;;;;;1.35;0.40;;;;;;;24.07;49.87;100762.34;5033550;28;20032;-64
2022/04/11 01:38:31;;;;;;;0.68;0.20;;;;;;;24.05;50.46;100761.72;5034687;28;20033;-65
2022/04/11 01:40:57;;;;;;;1.55;0.55;;;;;;;24.08;49.88;100766.78;5034437;28;20025;-65
2022/04/11 01:43:23;;;;;;;1.35;0.30;;;;;;;24.11;50.61;100771.84;5034610;28;20420;-65
2022/04/11 01:45:49;;;;;;;0.98;0.40;;;;;;;24.07;50.36;100776.06;5034765;28;20029;-65
2022/04/11 01:48:15;;;;;;;1.15;0.25;;;;;;;24.07;50.63;100776.06;5034746;28;20021;-64
2022/04/11 01:50:40;;;;;;;0.80;0.20;;;;;;;24.10;50.93;100775.66;5034097;28;20040;-65
2022/04/11 01:53:16;;;;;;;0.68;0.20;;;;;;;24.09;50.99;100784.94;5034249;28;20045;-64
2022/04/11 01:55:42;;;;;;;1.02;0.30;;;;;;;24.09;49.89;100790.44;5034471;28;20502;-64
2022/04/11 01:58:08;;;;;;;1.75;0.80;;;;;;;24.10;50.72;100786.63;5033886;28;20072;-65
2022/04/11 02:00:35;;;;;;;1.60;0.28;;;;;;;24.11;49.99;100799.31;5033937;28;20025;-65
2022/04/11 02:03:00;;;;;;;2.08;0.40;;;;;;;;;;5034331;28;20045;-65
2022/04/11 02:05:26;;;;;;;0.68;0.30;;;;;;;24.10;50.47;100791.28;5033746;28;20021;-64
2022/04/11 02:07:52;;;;;;;0.30;0.13;;;;;;;24.13;50.32;100805.44;5035277;28;20028;-65
2022/04/11 02:10:18;;;;;;;1.50;0.35;;;;;;;24.12;49.72;100809.22;5033772;28;20104;-65
2022/04/11 02:12:43;;;;;;;2.72;0.30;;;;;;;24.14;50.02;100815.38;5034121;28;20124;-64
2022/04/11 02:15:09;;;;;;;0.45;0.10;;;;;;;24.11;50.00;100810.28;5045691;28;20085;-65
2022/04/11 02:17:35;;;;;;;0.98;0.65;;;;;;;24.14;50.76;100815.38;5033789;28;20053;-64
2022/04/11 02:20:00;;;;;;;0.30;0.20;;;;;;;24.11;50.49;100826.78;5034331;28;20116;-65
2022/04/11 02:22:26;;;;;;;1.05;0.30;;;;;;;24.16;50.59;100816.00;5033986;28;20025;-65
2022/04/11 02:24:51;;;;;;;1.08;0.60;;;;;;;24.14;50.61;100820.00;5033715;28;20021;-64
2022/04/11 02:27:16;;;;;;;0.20;0.10;;;;;;;24.15;50.39;100828.03;5034395;28;20116;-65
2022/04/11 02:29:41;;;;;;;1.50;0.30;;;;;;;24.16;50.37;100828.88;5033539;28;20052;-65
2022/04/11 02:32:07;;;;;;;0.93;0.20;;;;;;;24.14;50.65;100831.84;5033635;28;20087;-65
2022/04/11 02:34:33;;;;;;;0.30;0.20;;;;;;;24.16;50.11;100839.88;5033959;28;20021;-64
2022/04/11 02:36:58;;;;;;;0.98;0.50;;;;;;;24.14;49.93;100831.84;5033657;28;20067;-64
2022/04/11 02:39:23;;;;;;;0.52;0.15;;;;;;;24.17;50.44;100842.41;5032639;28;20439;-64
2022/04/11 02:41:49;;;;;;;0.77;0.20;;;;;;;24.13;49.89;100841.13;5032149;28;20117;-66
2022/04/11 02:44:14;;;;;;;2.05;0.35;;;;;;;24.14;49.64;100845.56;5033197;28;20116;-64
2022/04/11 02:46:42;;;;;;;1.25;0.28;;;;;;;24.14;49.79;100848.31;5033461;28;20479;-65
2022/04/11 02:49:08;;;;;;;0.50;0.10;;;;;;;24.17;49.91;100852.53;5033264;28;20461;-64
2022/04/11 02:51:33;;;;;;;1.67;0.60;;;;;;;24.18;50.07;100855.06;5034190;28;20053;-64
2022/04/11 02:54:01;;;;;;;0.98;0.47;;;;;;;24.19;49.61;100855.97;5033559;28;20480;-64
2022/04/11 02:56:27;;;;;;;1.20;0.20;;;;;;;24.18;50.24;100855.06;5032975;28;20025;-64
2022/04/11 02:58:52;;;;;;;0.65;0.20;;;;;;;24.18;49.63;100860.56;5033122;28;20025;-65
2022/04/11 03:01:17;;;;;;;0.38;0.30;;;;;;;24.17;49.91;100787.47;5050014;28;20476;-65
2022/04/11 03:03:42;;;;;;;2.33;0.60;;;;;;;24.15;50.13;100792.34;5041569;28;20022;-65
2022/04/11 03:06:08;;;;;;;0.50;0.20;;;;;;;24.19;49.81;100782.63;5033203;28;20469;-64
2022/04/11 03:08:33;;;;;;;0.93;0.50;;;;;;;24.17;49.56;100891.84;5032755;28;20028;-65
2022/04/11 03:10:58;;;;;;;0.68;0.30;;;;;;;24.21;49.33;100886.81;5032926;28;20067;-64
2022/04/11 03:13:23;;;;;;;0.85;0.20;;;;;;;24.19;49.70;100883.41;5033317;28;20373;-64
2022/04/11 03:15:49;;;;;;;0.50;0.30;;;;;;;24.19;49.85;100892.50;5032946;28;20063;-65
2022/04/11 03:18:14;;;;;;;1.52;0.52;;;;;;;24.19;50.17;100900.75;5032808;28;20025;-65
2022/04/11 03:20:39;;;;;;;0.50;0.30;;;;;;;24.19;49.49;100895.25;5032872;28;20017;-65
2022/04/11 03:23:05;;;;;;;1.13;0.30;;;;;;;24.21;49.12;100871.16;5033124;28;20029;-64
2022/04/11 03:25:30;;;;;;;1.60;0.22;;;;;;;24.20;49.97;100877.72;5032623;28;20025;-65
2022/04/11 03:27:55;;;;;;;1.67;0.70;;;;;;;24.18;50.13;100887.19;5032891;28;20049;-64
2022/04/11 03:30:21;;;;;;;1.50;0.45;;;;;;;24.20;49.46;100874.97;5032556;28;20483;-65
2022/04/11 03:32:47;;;;;;;2.53;0.40;;;;;;;24.21;49.62;100860.19;5032795;28;20030;-65
2022/04/11 03:35:13;;;;;;;2.17;0.30;;;;;;;24.23;49.93;100869.06;5034381;28;20050;-65
2022/04/11 03:37:38;;;;;;;0.80;0.20;;;;;;;24.19;49.85;100876.03;5032693;28;20441;-64
2022/04/11 03:40:06;;;;;;;2.25;0.20;;;;;;;24.20;49.48;100877.72;5033138;28;20032;-64
2022/04/11 03:42:32;;;;;;;1.98;0.73;;;;;;;24.20;49.05;100876.88;5032913;28;20017;-66
2022/04/11 03:44:57;;;;;;;2.22;0.20;;;;;;;24.17;49.68;100886.34;5052292;28;20587;-65
2022/04/11 03:47:23;;;;;;;0.98;0.40;;;;;;;24.20;49.07;100894.19;5037662;28;20068;-64
2022/04/11 03:49:48;;;;;;;0.85;0.22;;;;;;;24.21;49.69;100887.66;5032403;28;20365;-64
2022/04/11 03:52:13;;;;;;;0.85;0.30;;;;;;;24.22;48.79;100894.00;5034963;28;20132;-65
2022/04/11 03:54:39;;;;;;;0.82;0.40;;;;;;;24.21;49.20;100887.66;5036554;28;20065;-65
2022/04/11 03:57:04;;;;;;;1.83;0.20;;;;;;;24.17;49.25;100891.84;5036254;28;20017;-66
2022/04/11 03:59:29;;;;;;;0.85;0.40;;;;;;;24.19;48.65;100895.25;5037088;28;20034;-65
2022/04/11 04:01:55;;;;;;;0.85;0.20;;;;;;;24.22;48.45;100903.06;5036507;28;20017;-65
2022/04/11 04:04:20;;;;;;;0.47;0.20;;;;;;;24.19;48.05;100872.44;5036172;28;20371;-66
2022/04/11 04:06:46;;;;;;;0.60;0.20;;;;;;;24.38;48.64;100903.75;5036527;28;20041;-65
2022/04/11 04:09:12;;;;;;;1.15;0.30;;;;;;;24.41;48.29;100914.31;5036631;28;20025;-66
2022/04/11 04:11:37;;;;;;;1.40;0.22;;;;;;;24.47;48.57;100936.31;5036042;28;20029;-66
2022/04/11 04:14:02;;;;;;;1.67;0.28;;;;;;;24.50;47.67;100951.53;5036524;28;20105;-65
2022/04/11 04:16:27;;;;;;;0.75;0.35;;;;;;;24.50;47.65;100915.78;5035944;28;20025;-65
2022/04/11 04:18:53;;;;;;;1.40;0.73;;;;;;;24.49;46.98;100903.13;5036004;28;20025;-65
2022/04/11 04:21:18;;;;;;;1.23;0.30;;;;;;;24.57;47.37;100911.16;5035794;28;20426;-65
2022/04/11 04:23:47;;;;;;;0.88;0.30;;;;;;;24.55;46.97;100916.03;5037498;28;20063;-64
2022/04/11 04:26:12;;;;;;;0.63;0.43;;;;;;;24.62;46.72;100927.03;5035673;28;20108;-65
2022/04/11 04:28:37;;;;;;;0.47;0.13;;;;;;;24.64;46.63;100930.41;5035681;28;20057;-65
2022/04/11 04:31:03;;;;;;;1.55;0.30;;;;;;;24.60;46.32;100941.81;5035753;28;20045;-65
2022/04/11 04:33:31;;;;;;;1.38;0.32;;;;;;;24.67;46.59;100943.72;5035718;28;20033;-64
2022/04/11 04:35:56;;;;;;;1.05;0.43;;;;;;;24.68;46.75;100949.00;5036529;28;20029;-65
2022/04/11 04:38:22;;;;;;;1.00;0.30;;;;;;;24.68;46.44;100948.16;5036569;28;20025;-64
2022/04/11 04:40:47;;;;;;;0.20;0.17;;;;;;;24.75;45.76;100947.13;5035490;28;20234;-65
2022/04/11 04:43:12;;;;;;;0.68;0.20;;;;;;;24.73;46.33;100946.50;5035331;28;20021;-65
2022/04/11 04:45:38;;;;;;;0.90;0.30;;;;;;;24.77;46.31;100939.50;5033902;28;20025;-65
2022/04/11 04:48:05;;;;;;;0.98;0.30;;;;;;;24.76;46.64;100940.56;5035673;28;20032;-65
2022/04/11 04:50:30;;;;;;;1.27;0.30;;;;;;;24.75;46.11;100940.78;5035445;28;20025;-65
2022/04/11 04:52:55;;;;;;;1.02;0.20;;;;;;;24.84;45.49;100948.59;5035131;28;20083;-65
2022/04/11 04:55:20;;;;;;;0.40;0.20;;;;;;;24.86;45.38;100951.16;5035187;28;20032;-65
2022/04/11 04:57:46;;;;;;;0.55;0.20;;;;;;;24.87;46.01;100947.34;5035469;28;20071;-65
2022/04/11 05:00:12;;;;;;;1.33;0.30;;;;;;;24.89;44.98;100951.56;5035035;28;20049;-65
2022/04/11 05:02:37;;;;;;;0.57;0.22;;;;;;;24.89;45.37;100951.56;5033125;28;20029;-64
2022/04/11 05:05:16;;;;;;;0.20;0.10;;;;;;;24.95;45.19;100957.25;5035163;28;20113;-65
2022/04/11 05:07:41;;;;;;;1.30;0.30;;;;;;;24.92;45.47;100955.78;5035275;28;20032;-65
2022/04/11 05:10:08;;;;;;;0.50;0.30;;;;;;;24.89;44.89;100957.06;5034939;28;20026;-66
2022/04/11 05:12:44;;;;;;;2.00;0.22;;;;;;;24.92;45.13;100949.44;5035835;28;20468;-65
2022/04/11 05:15:11;;;;;;;0.40;0.20;;;;;;;24.96;45.03;100957.03;5035147;28;20032;-65
2022/04/11 05:17:36;;;;;;;1.20;0.57;;;;;;;25.01;44.58;100953.69;5035251;28;20381;-65
2022/04/11 05:20:07;;;;;;;0.70;0.20;;;;;;;25.00;45.01;100957.50;5041444;28;20009;-64
2022/04/11 05:22:33;;;;;;;2.15;0.40;;;;;;;24.98;45.06;100951.34;5035274;28;20049;-65
2022/04/11 05:24:58;;;;;;;0.28;0.20;;;;;;;25.02;44.50;100952.63;5034755;28;20539;-64
2022/04/11 05:27:24;;;;;;;0.98;0.25;;;;;;;25.01;44.91;100959.19;5035257;28;20030;-64
2022/04/11 05:29:49;;;;;;;1.45;0.22;;;;;;;25.02;44.90;100955.38;5034562;28;20026;-64
2022/04/11 05:32:14;;;;;;;0.82;0.38;;;;;;;25.04;44.32;100965.13;5034605;28;20025;-65
2022/04/11 05:34:39;;;;;;;3.45;0.63;;;;;;;25.05;44.29;100965.97;5036542;28;20111;-64
2022/04/11 05:37:06;;;;;;;0.65;0.25;;;;;;;25.05;44.67;100963.22;5034600;28;20026;-64
2022/04/11 05:39:31;;;;;;;1.00;0.20;;;;;;;25.08;44.50;100965.53;5033489;28;20025;-65
2022/04/11 05:41:56;;;;;;;1.30;0.20;;;;;;;25.09;44.98;100967.22;5034629;28;20021;-64
2022/04/11 05:44:22;;;;;;;0.95;0.30;;;;;;;25.05;44.50;100965.97;5034346;28;20083;-64
2022/04/11 05:46:52;;;;;;;0.82;0.43;;;;;;;25.11;44.71;100962.38;5034460;28;20029;-64
2022/04/11 05:49:21;;;;;;;1.00;0.20;;;;;;;25.13;44.11;100974.00;5034563;28;20033;-66
2022/04/11 05:51:47;;;;;;;0.98;0.30;;;;;;;25.11;44.70;100965.13;5034540;28;20096;-65
2022/04/11 05:54:12;;;;;;;1.13;0.25;;;;;;;25.10;44.41;100964.28;5034685;28;20029;-65
2022/04/11 05:56:37;;;;;;;1.23;0.30;;;;;;;25.13;44.77;100974.00;5034200;28;20026;-65
2022/04/11 05:59:03;;;;;;;0.60;0.20;;;;;;;25.14;44.30;100964.69;5036509;28;20034;-65
2022/04/11 06:01:29;;;;;;;0.28;0.20;;;;;;;25.13;44.86;100968.50;5033794;28;20100;-66
2022/04/11 06:03:55;;;;;;;0.95;0.20;;;;;;;25.14;44.52;100973.78;5034107;28;20361;-62
2022/04/11 06:06:20;;;;;;;1.48;0.32;;;;;;;25.14;44.72;100975.69;5033802;28;20037;-64
2022/04/11 06:08:45;;;;;;;1.08;0.30;;;;;;;25.16;44.02;100979.06;5039904;28;20085;-63
2022/04/11 06:11:12;;;;;;;0.40;0.20;;;;;;;25.15;43.98;100971.88;5043710;28;20029;-64
2022/04/11 06:13:37;;;;;;;1.63;0.20;;;;;;;25.16;44.64;100984.56;5033765;28;20354;-64
2022/04/11 06:16:04;;;;;;;1.10;0.10;;;;;;;25.14;44.09;100978.44;5033683;28;20104;-63
2022/04/11 06:18:30;;;;;;;0.17;0.10;;;;;;;25.15;44.14;100982.88;5034873;28;20053;-65
2022/04/11 06:20:55;;;;;;;0.30;0.30;;;;;;;25.19;44.44;100984.13;5034503;28;20491;-64
2022/04/11 06:23:20;;;;;;;0.57;0.10;;;;;;;25.19;44.47;100984.13;5033758;28;20017;-63
2022/04/11 06:25:45;;;;;;;0.93;0.20;;;;;;;25.18;44.30;100986.03;5034331;28;20095;-63
2022/04/11 06:28:11;;;;;;;1.25;0.25;;;;;;;25.16;44.44;100999.16;5032794;28;20044;-64
2022/04/11 06:30:36;;;;;;;0.77;0.20;;;;;;;25.23;44.11;101006.59;5033486;28;20071;-63
2022/04/11 06:33:01;;;;;;;1.17;0.20;;;;;;;25.22;44.79;101008.50;5033651;28;20032;-64
2022/04/11 06:35:27;;;;;;;1.45;0.20;;;;;;;25.22;44.38;101016.75;5033368;28;20108;-63
2022/04/11 06:37:52;;;;;;;1.08;0.30;;;;;;;25.18;44.03;101007.22;5033507;28;20483;-63
2022/04/11 06:40:17;;;;;;;1.55;0.20;;;;;;;25.21;43.94;101023.31;5033413;28;20025;-64
2022/04/11 06:42:43;;;;;;;0.20;0.20;;;;;;;25.22;44.41;101015.91;5033201;28;20483;-63
2022/04/11 06:45:09;;;;;;;0.40;0.20;;;;;;;25.21;44.02;101031.56;5033753;28;20029;-64
2022/04/11 06:47:34;;;;;;;0.60;0.13;;;;;;;25.22;44.61;101016.75;5033355;28;20029;-64
2022/04/11 06:49:59;;;;;;;0.35;0.10;;;;;;;25.22;44.04;101022.25;5033281;28;20036;-63
2022/04/11 06:52:25;;;;;;;0.60;0.22;;;;;;;25.22;43.61;101019.50;5042402;28;20045;-64
2022/04/11 06:54:50;;;;;;;0.50;0.10;;;;;;;25.24;44.67;101025.63;5041541;28;20061;-63
2022/04/11 06:57:15;;;;;;;0.88;0.32;;;;;;;25.29;44.08;101027.75;5033197;28;20472;-63
2022/04/11 06:59:41;;;;;;;1.17;0.20;;;;;;;25.22;44.34;101027.75;5033143;28;20026;-63
2022/04/11 07:02:06;;;;;;;0.38;0.20;;;;;;;25.22;43.76;101027.75;5033237;28;20495;-63
2022/04/11 07:04:32;;;;;;;0.65;0.10;;;;;;;25.21;43.72;101026.06;5032697;28;20353;-63
2022/04/11 07:06:57;;;;;;;1.60;0.30;;;;;;;25.26;43.69;101029.00;5031539;28;20385;-64
2022/04/11 07:09:22;;;;;;;0.80;0.20;;;;;;;25.25;44.29;101035.59;5037339;28;20025;-63
2022/04/11 07:11:48;;;;;;;1.35;0.28;;;;;;;25.28;44.04;101037.91;5032589;28;20399;-64
2022/04/11 07:14:13;;;;;;;0.77;0.20;;;;;;;25.23;43.72;101040.44;5032540;28;20029;-63
2022/04/11 07:16:39;;;;;;;0.70;0.38;;;;;;;25.25;43.59;101046.59;5032489;28;20461;-63
2022/04/11 07:19:04;;;;;;;1.00;0.38;;;;;;;25.25;44.13;101049.34;5032700;28;20030;-63
2022/04/11 07:21:29;;;;;;;1.42;0.47;;;;;;;25.30;44.23;101056.94;5032291;28;20052;-63
2022/04/11 07:23:54;;;;;;;1.10;0.40;;;;;;;25.26;43.90;101051.03;5032593;28;20034;-62
2022/04/11 07:26:20;;;;;;;0.93;0.13;;;;;;;25.27;43.71;101052.72;5031771;28;20032;-63
2022/04/11 07:28:47;;;;;;;1.73;0.20;;;;;;;25.28;44.37;101051.66;5032466;28;20029;-64
2022/04/11 07:31:12;;;;;;;0.38;0.15;;;;;;;25.28;43.97;101048.91;5032388;28;20025;-63
2022/04/11 07:33:38;;;;;;;1.55;0.30;;;;;;;25.28;43.82;101056.31;5032437;28;20473;-63
2022/04/11 07:36:03;;;;;;;0.73;0.30;;;;;;;25.29;44.10;101052.50;5032529;28;20052;-63
2022/04/11 07:38:29;;;;;;;0.20;0.10;;;;;;;25.29;44.14;101061.59;5036259;28;20029;-63
2022/04/11 07:40:54;;;;;;;1.00;0.22;;;;;;;25.32;44.22;101060.31;5035400;28;20036;-63
2022/04/11 07:43:19;;;;;;;0.88;0.17;;;;;;;25.28;44.31;101059.91;5033004;28;20029;-63
2022/04/11 07:45:45;;;;;;;0.90;0.20;;;;;;;25.29;44.22;101061.59;5032435;28;20113;-63
2022/04/11 07:48:10;;;;;;;1.80;0.45;;;;;;;25.32;44.20;101055.66;5033317;28;20087;-62
2022/04/11 07:50:35;;;;;;;1.17;0.30;;;;;;;25.30;44.15;101059.69;5032201;28;20520;-63
2022/04/11 07:53:01;;;;;;;1.48;0.35;;;;;;;25.31;43.92;101064.97;5032116;28;20045;-62
2022/04/11 07:55:26;;;;;;;2.33;0.63;;;;;;;25.33;44.26;101056.50;5032011;28;20464;-64
2022/04/11 07:57:53;;;;;;;0.32;0.13;;;;;;;25.35;44.16;101063.50;5032229;28;20072;-63
2022/04/11 08:00:18;;;;;;;0.85;0.15;;;;;;;25.34;43.78;101058.19;5032033;28;20017;-64
2022/04/11 08:02:44;;;;;;;0.32;0.20;;;;;;;25.36;44.06;101061.59;5032244;28;20480;-63
2022/04/11 08:05:09;;;;;;;0.80;0.20;;;;;;;25.30;43.77;101068.81;5032965;28;20032;-63
2022/04/11 08:07:35;;;;;;;0.30;0.20;;;;;;;25.35;43.97;101060.75;5032394;28;20460;-64
2022/04/11 08:10:05;;;;;;;0.20;0.10;;;;;;;25.35;43.53;101069.00;5032125;28;20376;-63
2022/04/11 08:12:31;;;;;;;0.32;0.10;;;;;;;25.29;43.54;101072.59;5031916;28;20083;-63
2022/04/11 08:14:57;;;;;;;0.55;0.30;;;;;;;25.34;44.10;101075.56;5032196;28;20412;-62
2022/04/11 08:17:23;;;;;;;0.75;0.25;;;;;;;25.31;43.91;101066.88;5034927;28;20542;-63
2022/04/11 08:19:48;;;;;;;1.17;0.15;;;;;;;25.34;44.21;101072.81;5032095;28;20025;-63
2022/04/11 08:22:13;;;;;;;1.00;0.20;;;;;;;25.29;43.32;101078.13;5032211;28;20377;-63
2022/04/11 08:24:38;;;;;;;0.43;0.20;;;;;;;25.34;43.76;101078.31;5031884;28;20029;-63
2022/04/11 08:27:04;;;;;;;1.13;0.40;;;;;;;25.34;43.45;101081.06;5032034;28;20032;-63
2022/04/11 08:29:29;;;;;;;0.60;0.22;;;;;;;25.33;43.76;101079.38;5031633;28;20283;-63
2022/04/11 08:31:54;;;;;;;0.40;0.10;;;;;;;25.35;43.95;101082.75;5031912;28;20029;-63
2022/04/11 08:34:19;;;;;;;0.50;0.13;;;;;;;25.38;43.56;101076.00;5028195;28;20025;-63
2022/04/11 08:36:45;;;;;;;0.32;0.15;;;;;;;25.39;43.89;101073.03;5030920;28;20079;-63
2022/04/11 08:39:11;;;;;;;0.65;0.20;;;;;;;25.33;43.49;101079.38;5029314;28;20048;-63
2022/04/11 08:41:37;;;;;;;0.30;0.10;;;;;;;25.38;43.76;101081.50;5033626;28;20491;-63
2022/04/11 08:44:05;;;;;;;1.42;0.30;;;;;;;25.32;43.78;101085.94;5036029;28;20354;-61
2022/04/11 08:46:33;;;;;;;0.38;0.30;;;;;;;25.36;43.52;101084.47;5035129;28;20040;-63
2022/04/11 08:49:04;;;;;;;1.08;0.20;;;;;;;25.35;43.86;101091.00;5035354;28;20489;-62
2022/04/11 08:51:31;;;;;;;0.50;0.17;;;;;;;25.35;43.18;101093.75;5035019;28;20069;-63
2022/04/11 08:53:56;;;;;;;0.30;0.10;;;;;;;25.34;43.62;101097.56;5035364;28;20034;-62
2022/04/11 08:56:21;;;;;;;0.60;0.20;;;;;;;25.33;42.14;101098.63;5035213;28;20472;-62
2022/04/11 08:58:47;;;;;;;0.30;0.20;;;;;;;25.36;43.61;101084.47;5035106;28;20021;-62
2022/04/11 09:01:12;;;;;;;0.60;0.20;;;;;;;25.35;43.40;101096.53;5034867;28;20064;-63
2022/04/11 09:03:38;;;;;;;0.30;0.10;;;;;;;25.35;43.28;101069.00;5035245;28;20027;-63
2022/04/11 09:06:09;;;;;;;0.38;0.13;;;;;;;25.37;43.40;101105.44;5031044;28;20363;-63
2022/04/11 09:08:38;;;;;;;0.38;0.10;;;;;;;25.37;43.89;101110.09;5052526;28;20032;-62
2022/04/11 09:11:03;;;;;;;1.10;0.32;;;;;;;25.33;43.23;101106.06;5041912;28;20112;-62
2022/04/11 09:13:46;;;;;;;0.70;0.35;;;;;;;25.33;43.80;101109.66;5032295;28;20119;-64
2022/04/11 09:16:11;;;;;;;1.10;0.25;;;;;;;25.35;42.96;101115.78;5034712;28;20029;-64
2022/04/11 09:18:48;;;;;;;0.30;0.30;;;;;;;25.38;43.64;101107.13;5034906;28;20032;-64
2022/04/11 09:21:14;;;;;;;0.50;0.10;;;;;;;25.40;43.29;101117.91;5032841;28;20017;-66
2022/04/11 09:23:39;;;;;;;0.82;0.20;;;;;;;25.34;43.21;101119.59;5034533;28;20039;-64
2022/04/11 09:26:24;;;;;;;0.95;0.30;;;;;;;25.32;43.68;101126.38;5033851;28;20021;-63
2022/04/11 09:29:04;;;;;;;0.70;0.20;;;;;;;25.50;45.05;101124.69;5034446;28;20033;-63
2022/04/11 09:31:31;;;;;;;1.17;0.50;;;;;;;25.55;45.47;101120.47;5034107;28;20025;-64
2022/04/11 09:33:58;;;;;;;1.58;0.30;;;;;;;25.56;46.70;101119.41;5034458;28;20416;-63
2022/04/11 09:36:24;;;;;;;1.88;0.30;;;;;;;25.63;47.56;101122.97;5034275;28;20036;-64
2022/04/11 09:39:00;;;;;;;1.40;0.50;;;;;;;25.61;47.67;101125.97;5028650;28;20021;-64
2022/04/11 09:41:34;;;;;;;1.40;0.40;;;;;;;25.61;48.91;101131.47;5031978;28;20496;-63
2022/04/11 09:44:25;;;;;;;1.02;0.32;;;;;;;25.33;49.59;101123.41;5034212;28;20029;-64
2022/04/11 09:46:51;;;;;;;1.55;0.35;;;;;;;24.48;49.97;101129.53;5035151;28;20018;-64
2022/04/11 09:49:17;;;;;;;1.35;0.65;;;;;;;24.34;50.87;101134.09;5032659;28;20392;-63
2022/04/11 09:52:01;;;;;;;2.90;0.55;;;;;;;24.06;50.17;101136.91;5033147;28;20079;-64
2022/04/11 09:54:28;;;;;;;1.63;0.40;;;;;;;23.86;48.81;101136.78;5033893;28;20075;-64
2022/04/11 09:56:54;;;;;;;1.58;0.60;;;;;;;23.79;47.24;101135.03;5031976;28;20021;-64
2022/04/11 09:59:23;;;;;;;1.10;0.30;;;;;;;23.69;44.88;101141.72;5043391;28;20099;-63
2022/04/11 10:01:51;;;;;;;1.67;0.70;;;;;;;23.63;46.90;101142.50;5033178;28;20052;-63
2022/04/11 10:04:19;;;;;;;2.53;0.45;;;;;;;23.59;44.86;101143.97;5033810;28;20032;-64
2022/04/11 10:06:45;;;;;;;1.75;0.40;;;;;;;23.57;44.25;101146.06;5032848;28;20036;-63
2022/04/11 10:09:12;;;;;;;2.13;0.50;;;;;;;23.41;44.86;101149.91;5033836;28;20065;-64
2022/04/11 10:11:40;;;;;;;0.93;0.38;;;;;;;23.41;44.12;101149.91;5031478;28;20045;-64
2022/04/11 10:14:09;;;;;;;0.57;0.30;;;;;;;23.37;44.51;101153.25;5014343;28;20026;-64
2022/04/11 10:16:36;;;;;;;1.27;0.20;;;;;;;23.41;43.63;101155.38;5030395;28;20021;-63
2022/04/11 10:19:03;;;;;;;1.20;0.30;;;;;;;23.39;44.34;101159.38;5031201;28;20044;-64
2022/04/11 10:21:29;;;;;;;1.05;0.40;;;;;;;23.49;44.93;101162.59;5031537;28;20044;-64
2022/04/11 10:24:06;;;;;;;1.02;0.73;;;;;;;23.48;45.61;101166.41;5031246;28;20477;-64
2022/04/11 10:26:53;;;;;;;0.93;0.47;;;;;;;23.51;45.19;101166.00;5013478;28;20034;-64
2022/04/11 10:29:31;;;;;;;2.72;0.50;;;;;;;23.53;46.00;101163.94;5022863;28;20472;-64
2022/04/11 10:32:08;;;;;;;1.50;0.50;;;;;;;23.53;45.76;101157.59;5030874;28;20033;-64
2022/04/11 10:35:02;;;;;;;1.02;0.40;;;;;;;23.53;44.85;101174.91;5028937;28;20029;-64
2022/04/11 10:37:41;;;;;;;0.82;0.20;;;;;;;23.53;46.18;101172.16;5032672;28;20018;-64
2022/04/11 10:40:15;;;;;;;1.10;0.25;;;;;;;23.55;46.30;101172.81;5033234;28;20538;-64
2022/04/11 10:43:00;;;;;;;;;;;;;;;23.50;46.86;101178.03;5033524;28;20033;-64
2022/04/11 10:45:29;;;;;;;;;;;;;;;23.53;45.98;101174.06;5048740;28;19909;-63
2022/04/11 10:47:55;;;;;;;2.03;0.28;;;;;;;23.48;46.74;101177.38;5033115;28;19913;-64
2022/04/11 10:50:22;;;;;;;3.72;0.90;;;;;;;23.56;46.47;101179.16;5033002;28;20108;-64
2022/04/11 10:52:52;;;;;;;1.33;0.50;;;;;;;23.52;46.33;101188.84;5032775;28;20068;-64
2022/04/11 10:55:19;;;;;;;1.92;0.20;;;;;;;23.46;46.81;101174.00;5032783;28;20103;-64
2022/04/11 10:57:47;;;;;;;1.33;0.40;;;;;;;23.50;46.73;101179.94;5032879;28;20029;-64
2022/04/11 11:00:24;;;;;;;0.82;0.20;;;;;;;23.43;46.43;101185.38;5032322;28;20036;-64
2022/04/11 11:02:52;;;;;;;0.68;0.20;;;;;;;23.45;46.99;101183.25;5032648;28;20041;-64
2022/04/11 11:05:27;;;;;;;2.25;0.60;;;;;;;23.45;46.66;101186.00;5032695;28;20017;-64
2022/04/11 11:08:11;;;;;;;0.85;0.30;;;;;;;23.41;46.70;101187.47;5032874;28;20096;-64
2022/04/11 11:10:43;;;;;;;1.20;0.28;;;;;;;23.37;46.87;101197.97;5033508;28;20021;-64
2022/04/11 11:13:40;;;;;;;1.98;0.40;;;;;;;23.39;46.43;101186.81;5032673;28;20133;-64
2022/04/11 11:16:12;;;;;;;1.08;0.30;;;;;;;23.40;46.82;101189.34;5032704;28;20407;-64
2022/04/11 11:18:47;;;;;;;1.40;0.50;;;;;;;23.35;46.58;101188.25;5032556;28;20472;-64
2022/04/11 11:21:44;;;;;;;1.85;0.40;;;;;;;23.33;46.79;101193.06;5032537;28;20113;-64
2022/04/11 11:24:12;;;;;;;1.65;0.35;;;;;;;23.34;46.52;101197.50;5034210;28;20080;-64
2022/04/11 11:26:40;;;;;;;0.50;0.25;;;;;;;23.31;46.82;101203.38;5032508;28;20056;-64